createdAt,value
2023-04-22T00:02:23.373Z,99.90
2023-04-22T00:04:53.003Z,99.90
2023-04-22T00:07:20.013Z,99.90
2023-04-22T00:09:46.846Z,99.90
2023-04-22T00:12:15.846Z,99.90
2023-04-22T00:14:42.694Z,99.90
2023-04-22T00:17:09.568Z,99.90
2023-04-22T00:19:37.463Z,99.90
2023-04-22T00:22:04.703Z,99.90
2023-04-22T00:24:33.927Z,99.90
2023-04-22T00:27:02.994Z,99.90
2023-04-22T00:29:29.808Z,99.90
2023-04-22T00:31:59.162Z,99.90
2023-04-22T00:34:25.964Z,99.90
2023-04-22T00:36:55.031Z,99.90
2023-04-22T00:39:21.865Z,99.90
2023-04-22T00:41:49.562Z,99.90
2023-04-22T00:44:18.486Z,99.90
2023-04-22T00:46:45.786Z,99.90
2023-04-22T00:49:15.095Z,99.90
2023-04-22T00:51:43.155Z,99.90
2023-04-22T00:54:12.610Z,99.90
2023-04-22T00:56:39.712Z,99.90
2023-04-22T00:59:07.208Z,99.90
2023-04-22T01:01:34.498Z,99.90
2023-04-22T01:04:01.930Z,99.90
2023-04-22T01:06:34.391Z,99.90
2023-04-22T01:09:01.677Z,99.90
2023-04-22T01:11:28.644Z,99.90
2023-04-22T01:13:57.898Z,99.90
2023-04-22T01:16:29.055Z,99.90
2023-04-22T01:18:58.186Z,99.90
2023-04-22T01:21:26.519Z,99.90
2023-04-22T01:23:55.846Z,99.90
2023-04-22T01:26:23.156Z,99.90
2023-04-22T01:28:50.378Z,99.90
2023-04-22T01:31:19.629Z,99.90
2023-04-22T01:33:46.661Z,99.90
2023-04-22T01:36:16.614Z,99.90
2023-04-22T01:38:43.568Z,99.90
2023-04-22T01:41:10.494Z,99.90
2023-04-22T01:43:37.708Z,99.90
2023-04-22T01:46:05.002Z,99.90
2023-04-22T01:48:34.921Z,99.90
2023-04-22T01:51:02.257Z,99.90
2023-04-22T01:53:33.374Z,99.90
2023-04-22T01:56:00.267Z,99.90
2023-04-22T01:58:29.582Z,99.90
2023-04-22T02:00:57.204Z,99.90
2023-04-22T02:03:24.244Z,99.90
2023-04-22T02:05:51.160Z,99.90
2023-04-22T02:08:18.577Z,99.90
2023-04-22T02:10:45.430Z,99.90
2023-04-22T02:13:12.375Z,99.90
2023-04-22T02:15:40.520Z,99.90
2023-04-22T02:18:12.309Z,99.90
2023-04-22T02:20:42.596Z,99.90
2023-04-22T02:23:09.471Z,99.90
2023-04-22T02:25:36.838Z,99.90
2023-04-22T02:28:03.849Z,99.90
2023-04-22T02:30:31.239Z,99.90
2023-04-22T02:32:58.050Z,99.90
2023-04-22T02:35:25.288Z,99.90
2023-04-22T02:37:54.401Z,99.90
2023-04-22T02:40:23.553Z,99.90
2023-04-22T02:42:52.754Z,99.90
2023-04-22T02:45:20.948Z,99.90
2023-04-22T02:47:47.770Z,99.90
2023-04-22T02:50:16.712Z,99.90
2023-04-22T02:52:43.506Z,99.90
2023-04-22T02:55:10.397Z,99.90
2023-04-22T02:57:37.285Z,99.90
2023-04-22T03:00:04.870Z,99.90
2023-04-22T03:02:31.985Z,99.90
2023-04-22T03:05:06.012Z,99.90
2023-04-22T03:07:35.142Z,99.90
2023-04-22T03:10:02.599Z,99.90
2023-04-22T03:12:29.473Z,99.90
2023-04-22T03:14:56.848Z,99.90
2023-04-22T03:17:28.127Z,99.90
2023-04-22T03:19:59.433Z,99.90
2023-04-22T03:22:26.375Z,99.90
2023-04-22T03:24:56.848Z,99.90
2023-04-22T03:27:25.332Z,99.90
2023-04-22T03:29:52.252Z,99.90
2023-04-22T03:32:19.813Z,99.90
2023-04-22T03:34:50.097Z,99.90
2023-04-22T03:37:19.320Z,99.90
2023-04-22T03:39:48.640Z,99.90
2023-04-22T03:42:18.074Z,99.90
2023-04-22T03:44:46.119Z,99.90
2023-04-22T03:47:16.623Z,99.90
2023-04-22T03:49:50.206Z,99.90
2023-04-22T03:52:17.111Z,99.90
2023-04-22T03:54:50.735Z,99.90
2023-04-22T03:57:17.869Z,99.90
2023-04-22T03:59:44.996Z,99.90
2023-04-22T04:02:12.571Z,99.90
2023-04-22T04:04:39.727Z,99.90
2023-04-22T04:07:10.231Z,99.90
2023-04-22T04:09:37.277Z,99.90
2023-04-22T04:12:04.316Z,99.90
2023-04-22T04:14:36.262Z,99.90
2023-04-22T04:17:04.698Z,99.90
2023-04-22T04:19:37.092Z,99.90
2023-04-22T04:22:06.913Z,99.90
2023-04-22T04:24:42.041Z,99.90
2023-04-22T04:27:15.524Z,99.90
2023-04-22T04:29:49.700Z,99.90
2023-04-22T04:32:25.657Z,99.90
2023-04-22T04:34:53.204Z,99.90
2023-04-22T04:37:22.922Z,99.90
2023-04-22T04:40:02.358Z,99.90
2023-04-22T04:42:42.365Z,99.90
2023-04-22T04:45:16.942Z,99.90
2023-04-22T04:47:45.197Z,99.90
2023-04-22T04:50:22.772Z,99.90
2023-04-22T04:52:50.265Z,99.90
2023-04-22T04:55:22.130Z,99.90
2023-04-22T04:57:49.861Z,99.90
2023-04-22T05:00:17.361Z,99.90
2023-04-22T05:02:45.902Z,99.90
2023-04-22T05:05:14.867Z,99.90
2023-04-22T05:07:43.460Z,99.90
2023-04-22T05:10:14.501Z,99.90
2023-04-22T05:12:41.926Z,99.90
2023-04-22T05:15:14.891Z,99.90
2023-04-22T05:17:44.245Z,99.90
2023-04-22T05:20:11.465Z,99.90
2023-04-22T05:22:43.232Z,99.90
2023-04-22T05:25:10.720Z,99.90
2023-04-22T05:27:42.241Z,99.90
2023-04-22T05:30:12.712Z,99.90
2023-04-22T05:32:42.569Z,99.90
2023-04-22T05:35:10.107Z,99.90
2023-04-22T05:37:42.230Z,99.90
2023-04-22T05:40:11.724Z,99.90
2023-04-22T05:42:39.054Z,99.90
2023-04-22T05:45:06.481Z,99.90
2023-04-22T05:47:33.349Z,99.90
2023-04-22T05:50:03.813Z,99.90
2023-04-22T05:52:47.953Z,99.90
2023-04-22T05:55:16.969Z,99.90
2023-04-22T05:57:45.040Z,99.90
2023-04-22T06:00:37.767Z,99.90
2023-04-22T06:03:18.443Z,99.90
2023-04-22T06:05:48.291Z,99.90
2023-04-22T06:08:17.806Z,99.90
2023-04-22T06:10:47.466Z,99.90
2023-04-22T06:13:14.310Z,99.90
2023-04-22T06:15:43.609Z,99.90
2023-04-22T06:18:10.657Z,99.90
2023-04-22T06:20:39.987Z,99.90
2023-04-22T06:23:06.805Z,99.90
2023-04-22T06:25:36.623Z,99.90
2023-04-22T06:28:03.818Z,99.90
2023-04-22T06:30:34.177Z,99.90
2023-04-22T06:33:04.258Z,99.90
2023-04-22T06:35:36.289Z,99.90
2023-04-22T06:38:03.222Z,99.90
2023-04-22T06:40:36.624Z,99.90
2023-04-22T06:43:13.184Z,99.90
2023-04-22T06:46:02.906Z,99.90
2023-04-22T06:48:58.802Z,99.90
2023-04-22T06:51:48.280Z,99.90
2023-04-22T06:54:23.262Z,99.90
2023-04-22T06:56:50.997Z,99.90
2023-04-22T06:59:18.086Z,99.90
2023-04-22T07:01:46.871Z,99.90
2023-04-22T07:04:13.770Z,99.90
2023-04-22T07:06:40.962Z,99.90
2023-04-22T07:09:08.061Z,99.90
2023-04-22T07:11:35.000Z,99.90
2023-04-22T07:14:05.719Z,99.90
2023-04-22T07:16:32.618Z,99.90
2023-04-22T07:18:59.527Z,99.90
2023-04-22T07:21:26.375Z,99.90
2023-04-22T07:23:53.231Z,99.90
2023-04-22T07:26:20.073Z,99.90
2023-04-22T07:28:46.933Z,99.90
2023-04-22T07:31:13.769Z,99.90
2023-04-22T07:33:40.578Z,99.90
2023-04-22T07:36:09.490Z,99.90
2023-04-22T07:38:36.387Z,99.90
2023-04-22T07:41:03.159Z,99.90
2023-04-22T07:43:30.076Z,99.90
2023-04-22T07:45:57.314Z,99.90
2023-04-22T07:48:24.112Z,99.90
2023-04-22T07:50:50.976Z,99.90
2023-04-22T07:53:20.776Z,99.90
2023-04-22T07:55:49.530Z,99.90
2023-04-22T07:58:16.805Z,99.90
2023-04-22T08:00:43.723Z,99.90
2023-04-22T08:03:13.242Z,99.90
2023-04-22T08:05:40.319Z,99.90
2023-04-22T08:08:07.315Z,99.90
2023-04-22T08:10:34.130Z,99.90
2023-04-22T08:13:01.181Z,99.90
2023-04-22T08:15:30.669Z,99.90
2023-04-22T08:17:59.717Z,99.90
2023-04-22T08:20:26.808Z,99.90
2023-04-22T08:22:58.295Z,99.90
2023-04-22T08:25:25.210Z,99.90
2023-04-22T08:27:52.047Z,99.90
2023-04-22T08:30:21.185Z,99.90
2023-04-22T08:32:48.143Z,99.90
2023-04-22T08:35:15.047Z,99.90
2023-04-22T08:37:41.991Z,99.90
2023-04-22T08:40:09.207Z,99.90
2023-04-22T08:42:36.865Z,99.90
2023-04-22T08:45:04.440Z,99.90
2023-04-22T08:47:33.075Z,99.90
2023-04-22T08:50:01.846Z,99.90
2023-04-22T08:52:30.078Z,99.90
2023-04-22T08:55:02.092Z,99.90
2023-04-22T08:57:29.531Z,99.90
2023-04-22T08:59:56.409Z,99.90
2023-04-22T09:02:24.217Z,99.90
2023-04-22T09:04:56.381Z,99.90
2023-04-22T09:07:30.970Z,99.90
2023-04-22T09:09:58.279Z,99.90
2023-04-22T09:12:28.365Z,99.90
2023-04-22T09:14:55.584Z,99.90
2023-04-22T09:17:32.305Z,99.90
2023-04-22T09:20:03.289Z,99.90
2023-04-22T09:22:37.865Z,98.80
2023-04-22T09:25:05.194Z,98.10
2023-04-22T09:27:31.996Z,96.90
2023-04-22T09:29:58.797Z,96.10
2023-04-22T09:32:28.591Z,96.60
2023-04-22T09:34:58.382Z,95.00
2023-04-22T09:37:28.978Z,94.30
2023-04-22T09:40:04.341Z,94.30
2023-04-22T09:42:47.470Z,93.50
2023-04-22T09:45:14.330Z,92.40
2023-04-22T09:47:41.350Z,92.40
2023-04-22T09:50:11.343Z,94.00
2023-04-22T09:52:38.362Z,93.20
2023-04-22T09:55:09.037Z,92.20
2023-04-22T09:57:39.255Z,92.10
2023-04-22T10:00:10.485Z,91.10
2023-04-22T10:02:38.659Z,90.30
2023-04-22T10:05:05.710Z,90.30
2023-04-22T10:07:32.692Z,90.00
2023-04-22T10:09:59.599Z,89.10
2023-04-22T10:12:35.349Z,88.70
2023-04-22T10:15:06.688Z,88.60
2023-04-22T10:17:39.644Z,87.50
2023-04-22T10:20:13.821Z,85.80
2023-04-22T10:22:42.867Z,85.80
2023-04-22T10:25:14.034Z,85.50
2023-04-22T10:27:52.357Z,85.40
2023-04-22T10:30:29.284Z,85.40
2023-04-22T10:32:56.388Z,87.50
2023-04-22T10:35:27.291Z,83.50
2023-04-22T10:37:54.658Z,79.30
2023-04-22T10:40:22.838Z,76.40
2023-04-22T10:43:15.524Z,75.70
2023-04-22T10:45:45.945Z,75.30
2023-04-22T10:48:13.129Z,71.00
2023-04-22T10:50:39.984Z,68.10
2023-04-22T10:53:26.040Z,59.90
2023-04-22T10:55:53.402Z,60.00
2023-04-22T10:58:21.341Z,57.50
2023-04-22T11:00:54.375Z,59.20
2023-04-22T11:03:26.035Z,59.60
2023-04-22T11:06:15.598Z,57.70
2023-04-22T11:08:50.342Z,57.60
2023-04-22T11:11:20.541Z,60.30
2023-04-22T11:13:51.030Z,53.50
2023-04-22T11:16:22.355Z,53.10
2023-04-22T11:18:51.976Z,54.10
2023-04-22T11:21:19.773Z,53.90
2023-04-22T11:23:50.801Z,57.70
2023-04-22T11:26:32.281Z,56.40
2023-04-22T11:29:00.575Z,52.80
2023-04-22T11:31:27.603Z,52.40
2023-04-22T11:33:58.473Z,52.70
2023-04-22T11:36:25.626Z,53.10
2023-04-22T11:38:56.599Z,53.10
2023-04-22T11:41:23.850Z,55.00
2023-04-22T11:43:52.599Z,53.70
2023-04-22T11:46:38.492Z,53.20
2023-04-22T11:49:14.961Z,52.80
2023-04-22T11:51:57.754Z,51.00
2023-04-22T11:54:37.055Z,51.60
2023-04-22T11:57:05.773Z,51.70
2023-04-22T11:59:35.578Z,51.60
2023-04-22T12:02:05.366Z,51.80
2023-04-22T12:04:39.813Z,51.40
2023-04-22T12:07:07.041Z,51.70
2023-04-22T12:09:34.509Z,50.30
2023-04-22T12:12:03.744Z,50.80
2023-04-22T12:14:37.691Z,50.80
2023-04-22T12:17:08.134Z,50.70
2023-04-22T12:19:35.821Z,50.60
2023-04-22T12:22:03.394Z,50.20
2023-04-22T12:24:32.713Z,48.90
2023-04-22T12:27:03.495Z,48.20
2023-04-22T12:29:33.813Z,50.00
2023-04-22T12:32:01.095Z,47.50
2023-04-22T12:34:30.570Z,48.40
2023-04-22T12:36:57.503Z,48.80
2023-04-22T12:39:24.414Z,47.80
2023-04-22T12:41:51.434Z,48.30
2023-04-22T12:44:21.386Z,46.50
2023-04-22T12:46:51.984Z,47.90
2023-04-22T12:49:19.066Z,48.00
2023-04-22T12:51:46.013Z,47.50
2023-04-22T12:54:12.993Z,47.20
2023-04-22T12:56:42.067Z,46.10
2023-04-22T12:59:11.908Z,46.80
2023-04-22T13:01:41.669Z,46.90
2023-04-22T13:04:08.601Z,46.70
2023-04-22T13:06:36.383Z,46.50
2023-04-22T13:09:03.686Z,46.40
2023-04-22T13:11:30.623Z,45.80
2023-04-22T13:13:58.046Z,45.90
2023-04-22T13:16:24.950Z,46.00
2023-04-22T13:18:51.895Z,46.40
2023-04-22T13:21:18.781Z,44.10
2023-04-22T13:23:48.308Z,43.40
2023-04-22T13:26:15.857Z,42.30
2023-04-22T13:28:43.544Z,42.10
2023-04-22T13:31:10.635Z,41.70
2023-04-22T13:33:39.926Z,41.30
2023-04-22T13:36:06.876Z,41.70
2023-04-22T13:38:33.774Z,40.20
2023-04-22T13:41:01.989Z,41.20
2023-04-22T13:43:35.568Z,42.80
2023-04-22T13:46:02.652Z,42.30
2023-04-22T13:48:30.165Z,44.40
2023-04-22T13:50:57.115Z,46.10
2023-04-22T13:53:29.076Z,45.80
2023-04-22T13:55:55.930Z,47.00
2023-04-22T13:58:22.844Z,48.20
2023-04-22T14:00:49.929Z,49.10
2023-04-22T14:03:17.201Z,48.30
2023-04-22T14:05:44.537Z,45.90
2023-04-22T14:08:12.035Z,47.30
2023-04-22T14:10:38.912Z,46.50
2023-04-22T14:13:06.023Z,47.10
2023-04-22T14:15:33.098Z,48.30
2023-04-22T14:18:01.379Z,49.40
2023-04-22T14:20:28.330Z,50.70
2023-04-22T14:22:57.445Z,49.80
2023-04-22T14:25:24.510Z,50.70
2023-04-22T14:27:54.079Z,50.40
2023-04-22T14:30:21.876Z,51.10
2023-04-22T14:32:49.611Z,52.20
2023-04-22T14:35:16.697Z,51.20
2023-04-22T14:37:45.157Z,50.70
2023-04-22T14:40:12.608Z,50.70
2023-04-22T14:42:39.897Z,51.00
2023-04-22T14:45:09.302Z,52.50
2023-04-22T14:47:36.239Z,52.90
2023-04-22T14:50:03.366Z,53.50
2023-04-22T14:52:34.181Z,52.80
2023-04-22T14:55:15.444Z,52.90
2023-04-22T14:57:52.615Z,52.60
2023-04-22T15:00:21.038Z,53.10
2023-04-22T15:02:48.323Z,52.90
2023-04-22T15:05:15.899Z,52.30
2023-04-22T15:07:43.797Z,52.00
2023-04-22T15:10:10.899Z,52.50
2023-04-22T15:12:37.797Z,53.80
2023-04-22T15:15:07.330Z,54.70
2023-04-22T15:17:35.020Z,54.90
2023-04-22T15:20:06.107Z,55.20
2023-04-22T15:22:34.251Z,54.40
2023-04-22T15:25:01.456Z,54.40
2023-04-22T15:27:28.346Z,54.90
2023-04-22T15:29:57.742Z,59.50
2023-04-22T15:32:24.576Z,59.90
2023-04-22T15:34:51.468Z,58.70
2023-04-22T15:37:20.948Z,58.90
2023-04-22T15:39:47.811Z,57.00
2023-04-22T15:42:14.671Z,56.20
2023-04-22T15:44:42.622Z,55.60
2023-04-22T15:47:12.202Z,56.40
2023-04-22T15:49:39.396Z,56.50
2023-04-22T15:52:09.278Z,58.20
2023-04-22T15:54:38.586Z,58.00
2023-04-22T15:57:10.851Z,58.50
2023-04-22T15:59:37.984Z,57.10
2023-04-22T16:02:05.055Z,57.80
2023-04-22T16:04:32.146Z,58.20
2023-04-22T16:06:59.380Z,57.90
2023-04-22T16:09:26.421Z,58.40
2023-04-22T16:11:53.683Z,58.70
2023-04-22T16:14:23.121Z,59.60
2023-04-22T16:16:50.184Z,58.80
2023-04-22T16:19:16.962Z,59.00
2023-04-22T16:21:46.497Z,59.20
2023-04-22T16:24:14.661Z,59.30
2023-04-22T16:26:41.585Z,58.30
2023-04-22T16:29:08.498Z,58.20
2023-04-22T16:31:35.321Z,57.00
2023-04-22T16:34:02.187Z,56.70
2023-04-22T16:36:29.137Z,57.30
2023-04-22T16:38:56.530Z,56.30
2023-04-22T16:41:23.373Z,56.70
2023-04-22T16:43:50.656Z,56.80
2023-04-22T16:46:17.599Z,58.30
2023-04-22T16:48:44.413Z,59.80
2023-04-22T16:51:11.369Z,61.00
2023-04-22T16:53:38.206Z,61.40
2023-04-22T16:56:05.337Z,62.50
2023-04-22T16:58:32.090Z,62.90
2023-04-22T17:00:58.934Z,63.00
2023-04-22T17:03:26.141Z,63.50
2023-04-22T17:05:55.590Z,63.20
2023-04-22T17:08:22.427Z,62.70
2023-04-22T17:10:49.232Z,63.20
2023-04-22T17:13:16.163Z,64.20
2023-04-22T17:15:45.229Z,63.20
2023-04-22T17:18:16.266Z,63.10
2023-04-22T17:20:45.454Z,64.20
2023-04-22T17:23:12.222Z,64.70
2023-04-22T17:25:39.085Z,65.20
2023-04-22T17:28:06.242Z,64.40
2023-04-22T17:30:33.130Z,64.50
2023-04-22T17:32:59.967Z,64.70
2023-04-22T17:35:27.043Z,64.80
2023-04-22T17:37:53.958Z,65.10
2023-04-22T17:40:21.920Z,65.40
2023-04-22T17:42:48.895Z,65.90
2023-04-22T17:45:15.822Z,66.40
2023-04-22T17:47:45.141Z,67.50
2023-04-22T17:50:14.619Z,69.60
2023-04-22T17:52:41.596Z,71.00
2023-04-22T17:55:08.700Z,71.90
2023-04-22T17:57:36.596Z,73.20
2023-04-22T18:00:03.691Z,74.10
2023-04-22T18:02:34.478Z,75.80
2023-04-22T18:05:01.818Z,77.10
2023-04-22T18:07:28.668Z,78.50
2023-04-22T18:09:55.893Z,79.70
2023-04-22T18:12:27.656Z,80.40
2023-04-22T18:14:56.108Z,80.60
2023-04-22T18:17:23.017Z,80.60
2023-04-22T18:19:51.110Z,80.90
2023-04-22T18:22:18.582Z,81.30
2023-04-22T18:24:45.799Z,81.10
2023-04-22T18:27:12.737Z,81.30
2023-04-22T18:29:39.785Z,81.90
2023-04-22T18:32:06.725Z,81.90
2023-04-22T18:34:33.739Z,82.20
2023-04-22T18:37:00.535Z,82.60
2023-04-22T18:39:27.410Z,83.50
2023-04-22T18:42:19.267Z,84.00
2023-04-22T18:44:49.118Z,85.10
2023-04-22T18:47:18.494Z,85.30
2023-04-22T18:49:48.060Z,86.00
2023-04-22T18:52:16.311Z,86.20
2023-04-22T18:54:43.544Z,86.60
2023-04-22T18:57:11.067Z,87.00
2023-04-22T18:59:38.066Z,87.40
2023-04-22T19:02:05.532Z,88.10
2023-04-22T19:04:35.079Z,88.60
2023-04-22T19:07:02.178Z,88.80
2023-04-22T19:09:31.843Z,89.20
2023-04-22T19:12:04.407Z,89.70
2023-04-22T19:14:31.478Z,90.00
2023-04-22T19:16:58.398Z,90.30
2023-04-22T19:19:25.799Z,90.30
2023-04-22T19:21:52.626Z,90.40
2023-04-22T19:24:19.542Z,90.60
2023-04-22T19:26:47.218Z,90.40
2023-04-22T19:29:16.218Z,90.00
2023-04-22T19:31:49.832Z,90.10
2023-04-22T19:34:22.775Z,90.10
2023-04-22T19:36:51.001Z,90.50
2023-04-22T19:39:18.262Z,90.60
2023-04-22T19:41:45.232Z,90.60
2023-04-22T19:44:12.318Z,91.00
2023-04-22T19:46:39.317Z,91.30
2023-04-22T19:49:06.675Z,91.20
2023-04-22T19:51:34.453Z,91.30
2023-04-22T19:54:01.886Z,91.40
2023-04-22T19:56:28.829Z,91.60
2023-04-22T19:58:55.977Z,91.70
2023-04-22T20:01:22.943Z,91.90
2023-04-22T20:03:50.748Z,92.40
2023-04-22T20:06:18.371Z,92.40
2023-04-22T20:08:45.591Z,92.40
2023-04-22T20:11:12.418Z,92.40
2023-04-22T20:13:42.405Z,92.30
2023-04-22T20:16:09.632Z,93.00
2023-04-22T20:18:36.647Z,93.10
2023-04-22T20:21:08.208Z,93.60
2023-04-22T20:23:35.293Z,94.00
2023-04-22T20:26:02.828Z,93.90
2023-04-22T20:28:45.888Z,93.90
2023-04-22T20:31:13.324Z,93.90
2023-04-22T20:33:42.900Z,93.90
2023-04-22T20:36:09.969Z,94.20
2023-04-22T20:38:37.920Z,94.20
2023-04-22T20:41:06.125Z,95.50
2023-04-22T20:43:33.372Z,95.10
2023-04-22T20:46:00.164Z,95.40
2023-04-22T20:48:28.052Z,95.70
2023-04-22T20:50:55.694Z,95.80
2023-04-22T20:53:22.880Z,96.20
2023-04-22T20:55:50.364Z,96.50
2023-04-22T20:58:17.274Z,96.70
2023-04-22T21:00:44.059Z,97.40
2023-04-22T21:03:13.503Z,97.60
2023-04-22T21:05:42.560Z,97.70
2023-04-22T21:08:24.659Z,97.70
2023-04-22T21:10:52.859Z,97.70
2023-04-22T21:13:22.638Z,98.00
2023-04-22T21:15:56.626Z,98.50
2023-04-22T21:18:24.717Z,98.80
2023-04-22T21:20:56.198Z,98.90
2023-04-22T21:23:23.811Z,99.30
2023-04-22T21:25:53.082Z,99.60
2023-04-22T21:28:23.858Z,99.90
2023-04-22T21:30:50.927Z,99.90
2023-04-22T21:33:18.367Z,99.90
2023-04-22T21:35:47.464Z,99.90
2023-04-22T21:38:16.663Z,99.90
2023-04-22T21:40:43.737Z,99.90
2023-04-22T21:43:12.673Z,99.90
2023-04-22T21:45:39.720Z,99.90
2023-04-22T21:48:08.988Z,99.90
2023-04-22T21:50:35.965Z,99.90
2023-04-22T21:53:05.508Z,99.90
2023-04-22T21:55:32.395Z,99.90
2023-04-22T21:58:01.598Z,99.90
2023-04-22T22:00:31.706Z,99.90
2023-04-22T22:02:58.795Z,99.90
2023-04-22T22:05:25.920Z,99.90
2023-04-22T22:07:55.465Z,99.90
2023-04-22T22:10:22.800Z,99.90
2023-04-22T22:12:49.926Z,99.90
2023-04-22T22:15:17.251Z,99.90
2023-04-22T22:17:44.625Z,99.90
2023-04-22T22:20:12.967Z,99.90
2023-04-22T22:22:40.655Z,99.90
2023-04-22T22:25:10.430Z,99.90
2023-04-22T22:27:40.842Z,99.90
2023-04-22T22:30:08.186Z,99.90
2023-04-22T22:32:35.660Z,99.90
2023-04-22T22:35:02.883Z,99.90
2023-04-22T22:37:32.246Z,99.90
2023-04-22T22:39:59.156Z,99.90
2023-04-22T22:42:25.968Z,99.90
2023-04-22T22:44:52.778Z,99.90
2023-04-22T22:47:19.584Z,99.90
2023-04-22T22:49:46.397Z,99.90
2023-04-22T22:52:13.259Z,99.90
2023-04-22T22:54:41.119Z,99.90
2023-04-22T22:57:08.393Z,99.90
2023-04-22T22:59:36.113Z,99.90
2023-04-22T23:02:03.261Z,99.90
2023-04-22T23:04:30.490Z,99.90
2023-04-22T23:06:57.465Z,99.90
2023-04-22T23:09:24.369Z,99.90
2023-04-22T23:11:55.457Z,99.90
2023-04-22T23:14:22.698Z,99.90
2023-04-22T23:16:51.638Z,99.90
2023-04-22T23:19:21.032Z,99.90
2023-04-22T23:21:50.229Z,99.90
2023-04-22T23:24:17.310Z,99.90
2023-04-22T23:26:44.266Z,99.90
2023-04-22T23:29:13.481Z,99.90
2023-04-22T23:31:41.413Z,99.90
2023-04-22T23:34:10.675Z,99.90
2023-04-22T23:36:37.574Z,99.90
2023-04-22T23:39:08.133Z,99.90
2023-04-22T23:41:35.098Z,99.90
2023-04-22T23:44:01.973Z,99.90
2023-04-22T23:46:28.824Z,99.90
2023-04-22T23:48:55.642Z,99.90
2023-04-22T23:51:22.528Z,99.90
2023-04-22T23:53:51.809Z,99.90
2023-04-22T23:56:21.086Z,99.90
2023-04-22T23:58:51.199Z,99.90
